sensor_id;sensor_type;location;lat;lon;timestamp;temperature;humidity
15158;DHT22;7679;48.796;9.056;2022-08-01T00:06:36;26.40;51.30
15158;DHT22;7679;48.796;9.056;2022-08-01T00:17:03;26.40;51.30
15158;DHT22;7679;48.796;9.056;2022-08-01T00:27:27;26.40;51.90
15158;DHT22;7679;48.796;9.056;2022-08-01T00:37:54;26.40;51.30
15158;DHT22;7679;48.796;9.056;2022-08-01T00:48:18;26.40;51.30
15158;DHT22;7679;48.796;9.056;2022-08-01T00:58:45;26.40;51.30
15158;DHT22;7679;48.796;9.056;2022-08-01T01:09:24;26.40;51.30
15158;DHT22;7679;48.796;9.056;2022-08-01T01:19:57;26.30;51.20
15158;DHT22;7679;48.796;9.056;2022-08-01T01:30:28;26.30;51.20
15158;DHT22;7679;48.796;9.056;2022-08-01T01:40:55;26.30;51.20
15158;DHT22;7679;48.796;9.056;2022-08-01T01:51:25;26.30;51.20
15158;DHT22;7679;48.796;9.056;2022-08-01T02:01:52;26.30;51.20
15158;DHT22;7679;48.796;9.056;2022-08-01T02:12:19;26.40;51.30
15158;DHT22;7679;48.796;9.056;2022-08-01T02:22:47;26.30;51.20
15158;DHT22;7679;48.796;9.056;2022-08-01T02:33:17;26.40;51.30
15158;DHT22;7679;48.796;9.056;2022-08-01T02:43:45;26.30;51.30
15158;DHT22;7679;48.796;9.056;2022-08-01T02:54:15;26.30;51.30
15158;DHT22;7679;48.796;9.056;2022-08-01T03:04:40;26.30;51.30
15158;DHT22;7679;48.796;9.056;2022-08-01T03:15:09;26.30;51.20
15158;DHT22;7679;48.796;9.056;2022-08-01T03:25:38;26.30;51.20
15158;DHT22;7679;48.796;9.056;2022-08-01T03:36:09;26.30;51.30
15158;DHT22;7679;48.796;9.056;2022-08-01T03:46:40;26.30;51.20
15158;DHT22;7679;48.796;9.056;2022-08-01T03:57:09;26.30;51.20
15158;DHT22;7679;48.796;9.056;2022-08-01T04:07:33;26.30;51.20
15158;DHT22;7679;48.796;9.056;2022-08-01T04:18:02;26.30;51.20
15158;DHT22;7679;48.796;9.056;2022-08-01T04:28:28;26.30;51.30
15158;DHT22;7679;48.796;9.056;2022-08-01T04:38:59;26.30;51.30
15158;DHT22;7679;48.796;9.056;2022-08-01T04:49:24;26.30;51.20
15158;DHT22;7679;48.796;9.056;2022-08-01T04:59:51;26.30;51.30
15158;DHT22;7679;48.796;9.056;2022-08-01T05:10:17;26.30;51.30
15158;DHT22;7679;48.796;9.056;2022-08-01T05:20:44;26.30;51.20
15158;DHT22;7679;48.796;9.056;2022-08-01T05:31:08;26.30;51.20
15158;DHT22;7679;48.796;9.056;2022-08-01T05:41:35;26.30;51.30
15158;DHT22;7679;48.796;9.056;2022-08-01T05:51:59;26.30;51.30
15158;DHT22;7679;48.796;9.056;2022-08-01T06:02:26;26.30;51.30
15158;DHT22;7679;48.796;9.056;2022-08-01T06:12:50;26.30;51.30
15158;DHT22;7679;48.796;9.056;2022-08-01T06:23:17;26.30;51.20
15158;DHT22;7679;48.796;9.056;2022-08-01T06:33:41;26.30;51.30
15158;DHT22;7679;48.796;9.056;2022-08-01T06:44:08;26.30;51.30
15158;DHT22;7679;48.796;9.056;2022-08-01T06:54:31;26.30;51.30
15158;DHT22;7679;48.796;9.056;2022-08-01T07:04:58;26.30;51.30
15158;DHT22;7679;48.796;9.056;2022-08-01T07:15:22;26.30;51.30
15158;DHT22;7679;48.796;9.056;2022-08-01T07:25:49;26.20;51.20
15158;DHT22;7679;48.796;9.056;2022-08-01T07:36:13;26.30;51.30
15158;DHT22;7679;48.796;9.056;2022-08-01T07:46:40;26.30;51.30
15158;DHT22;7679;48.796;9.056;2022-08-01T07:57:04;26.30;51.30
15158;DHT22;7679;48.796;9.056;2022-08-01T08:07:30;26.30;51.30
15158;DHT22;7679;48.796;9.056;2022-08-01T08:17:54;26.30;51.40
15158;DHT22;7679;48.796;9.056;2022-08-01T08:28:21;26.20;51.20
15158;DHT22;7679;48.796;9.056;2022-08-01T08:38:44;26.30;51.40
15158;DHT22;7679;48.796;9.056;2022-08-01T08:49:15;26.20;51.30
15158;DHT22;7679;48.796;9.056;2022-08-01T08:59:39;26.30;51.40
15158;DHT22;7679;48.796;9.056;2022-08-01T09:10:08;26.30;51.40
15158;DHT22;7679;48.796;9.056;2022-08-01T09:20:32;26.30;51.40
15158;DHT22;7679;48.796;9.056;2022-08-01T09:31:05;26.30;51.40
15158;DHT22;7679;48.796;9.056;2022-08-01T09:41:30;26.30;51.40
15158;DHT22;7679;48.796;9.056;2022-08-01T09:51:58;26.30;51.40
15158;DHT22;7679;48.796;9.056;2022-08-01T10:02:30;26.30;51.40
15158;DHT22;7679;48.796;9.056;2022-08-01T10:12:58;26.30;51.40
15158;DHT22;7679;48.796;9.056;2022-08-01T10:23:23;26.40;51.40
15158;DHT22;7679;48.796;9.056;2022-08-01T10:33:50;26.70;51.00
15158;DHT22;7679;48.796;9.056;2022-08-01T10:44:14;26.80;50.80
15158;DHT22;7679;48.796;9.056;2022-08-01T10:54:42;27.00;50.70
15158;DHT22;7679;48.796;9.056;2022-08-01T11:05:11;27.20;50.70
15158;DHT22;7679;48.796;9.056;2022-08-01T11:15:38;27.20;50.70
15158;DHT22;7679;48.796;9.056;2022-08-01T11:26:14;27.20;50.50
15158;DHT22;7679;48.796;9.056;2022-08-01T11:36:41;27.20;50.40
15158;DHT22;7679;48.796;9.056;2022-08-01T11:47:06;27.20;50.10
15158;DHT22;7679;48.796;9.056;2022-08-01T11:57:35;27.20;50.10
15158;DHT22;7679;48.796;9.056;2022-08-01T12:08:00;27.20;50.10
15158;DHT22;7679;48.796;9.056;2022-08-01T12:18:26;27.20;50.00
15158;DHT22;7679;48.796;9.056;2022-08-01T12:28:50;27.30;50.60
15158;DHT22;7679;48.796;9.056;2022-08-01T12:39:17;27.30;50.00
15158;DHT22;7679;48.796;9.056;2022-08-01T12:49:42;27.30;49.90
15158;DHT22;7679;48.796;9.056;2022-08-01T13:00:25;27.30;49.80
15158;DHT22;7679;48.796;9.056;2022-08-01T13:38:24;27.40;49.80
15158;DHT22;7679;48.796;9.056;2022-08-01T13:49:00;27.50;49.70
15158;DHT22;7679;48.796;9.056;2022-08-01T13:59:26;27.50;49.80
15158;DHT22;7679;48.796;9.056;2022-08-01T14:09:53;27.60;49.60
15158;DHT22;7679;48.796;9.056;2022-08-01T14:20:20;27.60;49.70
15158;DHT22;7679;48.796;9.056;2022-08-01T14:30:43;27.60;49.80
15158;DHT22;7679;48.796;9.056;2022-08-01T14:41:11;27.50;49.80
15158;DHT22;7679;48.796;9.056;2022-08-01T14:51:35;27.50;49.80
15158;DHT22;7679;48.796;9.056;2022-08-01T15:02:02;27.50;49.80
15158;DHT22;7679;48.796;9.056;2022-08-01T15:12:26;27.50;49.90
15158;DHT22;7679;48.796;9.056;2022-08-01T15:22:55;27.50;49.90
15158;DHT22;7679;48.796;9.056;2022-08-01T15:33:20;27.50;50.00
15158;DHT22;7679;48.796;9.056;2022-08-01T15:43:48;27.40;49.90
15158;DHT22;7679;48.796;9.056;2022-08-01T15:54:12;27.40;49.90
15158;DHT22;7679;48.796;9.056;2022-08-01T16:04:43;27.40;50.00
15158;DHT22;7679;48.796;9.056;2022-08-01T16:15:09;27.40;49.90
15158;DHT22;7679;48.796;9.056;2022-08-01T16:25:36;27.40;50.10
15158;DHT22;7679;48.796;9.056;2022-08-01T16:36:00;27.40;50.00
15158;DHT22;7679;48.796;9.056;2022-08-01T16:46:30;27.40;50.00
15158;DHT22;7679;48.796;9.056;2022-08-01T16:56:54;27.40;50.00
15158;DHT22;7679;48.796;9.056;2022-08-01T17:07:22;27.30;50.00
15158;DHT22;7679;48.796;9.056;2022-08-01T17:17:47;27.30;50.00
15158;DHT22;7679;48.796;9.056;2022-08-01T17:28:16;27.30;50.00
15158;DHT22;7679;48.796;9.056;2022-08-01T17:38:42;27.30;50.00
15158;DHT22;7679;48.796;9.056;2022-08-01T17:49:10;27.30;50.00
15158;DHT22;7679;48.796;9.056;2022-08-01T17:59:34;27.30;50.00
15158;DHT22;7679;48.796;9.056;2022-08-01T18:10:01;27.30;49.90
15158;DHT22;7679;48.796;9.056;2022-08-01T18:20:27;27.40;49.90
15158;DHT22;7679;48.796;9.056;2022-08-01T18:30:54;27.40;49.90
15158;DHT22;7679;48.796;9.056;2022-08-01T18:41:18;27.40;49.90
15158;DHT22;7679;48.796;9.056;2022-08-01T18:51:46;27.50;49.80
15158;DHT22;7679;48.796;9.056;2022-08-01T19:02:10;27.50;49.70
15158;DHT22;7679;48.796;9.056;2022-08-01T19:12:38;27.60;49.70
15158;DHT22;7679;48.796;9.056;2022-08-01T19:23:04;27.60;49.60
15158;DHT22;7679;48.796;9.056;2022-08-01T19:33:51;27.70;50.10
15158;DHT22;7679;48.796;9.056;2022-08-01T19:44:18;27.70;49.60
15158;DHT22;7679;48.796;9.056;2022-08-01T19:54:46;27.60;49.50
15158;DHT22;7679;48.796;9.056;2022-08-01T20:05:10;27.60;49.60
15158;DHT22;7679;48.796;9.056;2022-08-01T20:15:37;27.60;49.60
15158;DHT22;7679;48.796;9.056;2022-08-01T20:26:01;27.60;49.60
15158;DHT22;7679;48.796;9.056;2022-08-01T20:36:36;27.60;49.70
15158;DHT22;7679;48.796;9.056;2022-08-01T20:47:01;27.60;49.70
15158;DHT22;7679;48.796;9.056;2022-08-01T20:57:30;27.60;49.70
15158;DHT22;7679;48.796;9.056;2022-08-01T21:08:00;27.60;49.60
15158;DHT22;7679;48.796;9.056;2022-08-01T21:18:36;27.60;49.70
15158;DHT22;7679;48.796;9.056;2022-08-01T21:29:03;27.60;49.70
15158;DHT22;7679;48.796;9.056;2022-08-01T21:39:31;27.60;49.70
15158;DHT22;7679;48.796;9.056;2022-08-01T21:50:00;27.50;49.70
15158;DHT22;7679;48.796;9.056;2022-08-01T22:00:27;27.50;49.80
15158;DHT22;7679;48.796;9.056;2022-08-01T22:10:56;27.50;49.70
15158;DHT22;7679;48.796;9.056;2022-08-01T22:21:26;27.50;49.80
15158;DHT22;7679;48.796;9.056;2022-08-01T22:31:51;27.50;50.40
15158;DHT22;7679;48.796;9.056;2022-08-01T22:42:20;27.50;49.70
15158;DHT22;7679;48.796;9.056;2022-08-01T22:52:52;27.50;49.70
15158;DHT22;7679;48.796;9.056;2022-08-01T23:03:26;27.60;49.80
15158;DHT22;7679;48.796;9.056;2022-08-01T23:13:53;27.60;49.80
15158;DHT22;7679;48.796;9.056;2022-08-01T23:24:22;27.50;49.70
15158;DHT22;7679;48.796;9.056;2022-08-01T23:34:47;27.50;49.70
15158;DHT22;7679;48.796;9.056;2022-08-01T23:45:14;27.50;49.70
15158;DHT22;7679;48.796;9.056;2022-08-01T23:55:39;27.50;49.80
